Eareckson Air Station
PASY : now visible

Airfield :











YOU CAN JOIN US ON...

 
LOGIN :

Register | Disclaimer

   EN    FR    IT 

 









Legend :    VFR   Marginal VFR   IFR   Intensive IFR   Very Intensive IFR
Visi :
Ceiling :
>= 8 km
>= 3000ft
5 to 8 km
1000 to 3000 ft
1500m to 5 km
500 to 1000 ft
800 to 1500m
200 to 500 ft
< 800m
< 200 ft
Symbols :   Thunderstorms  Fog  Heavy snow  Heavy precipitations  Wind > 20 kt






- Airport Elevation : 95 ft
- IATA code : SYA


PASY - Eareckson Air Station

CURRENT METAR :
  • 262055Z 32023G30KT 7SM VCSH SCT018 BKN029 BKN065 04/03 A2984 RMK AO2A PK WND 31038/31 SHRAB22E55 SLP109 60003 T00440032 58007 RVRNO PNO $

EXPIRED METARs :
  • 262022Z 30024G29KT 6SM -SHRA SCT029 SCT038 BKN045 BKN065 BKN080 06/02 A2985
  • 261957Z 31022G29KT 7SM FEW025 SCT080 06/01 A2986 RMK AO2A PK WND 31031/44 SLP115 T00590008 RVRNO PNO $
  • 261858Z 31023KT 7SM SCT029 06/01 A2987 RMK AO2A PK WND 31027/1833 SLP119 T00540010 RVRNO PNO $

TAF TAF PASY
Valid from the 26 at 14:00 until the 27 at 20:00 UTC


261400Z 2614/2720 33015G25KT 9000 -SHRA FEW022 BKN030 510013 QNH2983INS
BECMG 2702/2703 32025KT 9999 NSW BKN022 620224 510013 QNH2983INS
BECMG 2704/2705 01025G30KT 9999 BKN023 620234 510023 QNH2987INS
BECMG 2706/2707 35020G30KT 9999 BKN030 620304 510033 QNH2995INS
BECMG 2709/2710 35015G20KT 9999 SCT024 510033 QNH3004INS
BECMG 2713/2714 34018KT 9999 BKN025 510043 QNH3011INS TX09/2706Z TN04/2617Z
PAZA FIR / North America



MET'MAP, your aeronautical weather chart ! - Copyright ORBIFLY December 2007 - Disclaimer

ORBIFLY MET'MAP TEAM :

Programming & Development : Alexandra Zaïnal
Concept & original design : Baudouin d'Aumeries
Assistance for programming : Marc-Olivier Méhu
Technical & hardware support : Manuel Goepfert

Contact : metmap@orbifly.com




SOURCES & CREDITS :

   NOAA       Earth
Advisory